createdAt,value
2018-03-21T00:08:41.488Z,-0.51
2018-03-21T00:18:41.397Z,-0.62
2018-03-21T00:28:41.462Z,-0.75
2018-03-21T00:38:41.444Z,-1.05
2018-03-21T00:48:41.481Z,-0.94
2018-03-21T00:58:41.470Z,-1.03
2018-03-21T01:08:41.418Z,-1.06
2018-03-21T01:18:41.480Z,-1.05
2018-03-21T01:28:41.409Z,-1.21
2018-03-21T01:38:41.491Z,-1.21
2018-03-21T01:48:41.458Z,-1.21
2018-03-21T01:58:41.517Z,-1.15
2018-03-21T02:08:41.493Z,-1.43
2018-03-21T02:18:41.519Z,-1.23
2018-03-21T02:28:41.498Z,-1.42
2018-03-21T02:38:41.546Z,-1.53
2018-03-21T02:48:41.529Z,-1.43
2018-03-21T02:58:41.496Z,-1.59
2018-03-21T03:08:41.574Z,-1.53
2018-03-21T03:18:41.500Z,-1.74
2018-03-21T03:28:41.582Z,-1.63
2018-03-21T03:38:41.536Z,-1.75
2018-03-21T03:48:41.604Z,-1.7
2018-03-21T03:58:41.580Z,-1.59
2018-03-21T04:08:41.652Z,-1.46
2018-03-21T04:18:41.590Z,-1.38
2018-03-21T04:28:41.546Z,-1.41
2018-03-21T04:38:41.617Z,-1.36
2018-03-21T04:48:41.583Z,-1.42
2018-03-21T04:58:41.635Z,-1.56
2018-03-21T05:08:41.576Z,-1.82
2018-03-21T05:18:41.637Z,-1.99
2018-03-21T05:28:41.599Z,-2.14
2018-03-21T05:38:41.679Z,-2.02
2018-03-21T05:48:41.662Z,-1.8
2018-03-21T05:58:41.608Z,-1.56
2018-03-21T06:08:41.689Z,-1.36
2018-03-21T06:18:41.624Z,-1.17
2018-03-21T06:28:41.682Z,-1.03
2018-03-21T06:38:41.663Z,-0.62
2018-03-21T06:48:41.736Z,-0.26
2018-03-21T06:58:41.701Z,-0.01
2018-03-21T07:08:41.776Z,0.25
2018-03-21T07:18:41.708Z,0.46
2018-03-21T07:28:41.834Z,0.79
2018-03-21T07:38:41.783Z,0.92
2018-03-21T07:48:42.292Z,1.33
2018-03-21T07:58:41.805Z,1.46
2018-03-21T08:08:41.727Z,1.98
2018-03-21T08:18:41.775Z,2.59
2018-03-21T08:28:41.816Z,3.24
2018-03-21T08:38:41.787Z,3.61
